createdAt,value
2017-11-24T00:00:06.874Z,17.70
2017-11-24T00:02:34.388Z,17.43
2017-11-24T00:05:01.962Z,18.37
2017-11-24T00:07:29.519Z,18.10
2017-11-24T00:09:57.055Z,16.70
2017-11-24T00:12:25.360Z,17.73
2017-11-24T00:14:52.931Z,18.23
2017-11-24T00:17:20.460Z,18.00
2017-11-24T00:19:48.740Z,17.13
2017-11-24T00:22:17.088Z,18.20
2017-11-24T00:24:46.000Z,16.75
2017-11-24T00:27:14.277Z,18.10
2017-11-24T00:29:42.628Z,17.63
2017-11-24T00:32:10.150Z,17.50
2017-11-24T00:34:37.823Z,16.90
2017-11-24T00:37:05.364Z,16.47
2017-11-24T00:39:32.923Z,17.07
2017-11-24T00:42:00.823Z,17.50
2017-11-24T00:44:28.755Z,15.93
2017-11-24T00:46:56.283Z,16.97
2017-11-24T00:49:24.567Z,16.03
2017-11-24T00:51:52.883Z,17.10
2017-11-24T00:54:20.819Z,16.97
2017-11-24T00:56:48.423Z,16.17
2017-11-24T00:59:15.972Z,16.45
2017-11-24T01:01:43.539Z,15.60
2017-11-24T01:04:11.060Z,16.63
2017-11-24T01:06:39.355Z,14.63
2017-11-24T01:09:06.903Z,17.17
2017-11-24T01:11:35.184Z,16.67
2017-11-24T01:14:02.713Z,16.83
2017-11-24T01:16:30.244Z,15.63
2017-11-24T01:18:57.942Z,17.50
2017-11-24T01:21:26.281Z,16.23
2017-11-24T01:23:54.579Z,16.03
2017-11-24T01:26:22.516Z,17.00
2017-11-24T01:28:50.068Z,15.90
2017-11-24T01:31:18.180Z,15.70
2017-11-24T01:33:45.711Z,16.30
2017-11-24T01:36:13.252Z,15.60
2017-11-24T01:38:41.548Z,15.70
2017-11-24T01:41:09.063Z,15.67
2017-11-24T01:43:37.364Z,14.90
2017-11-24T01:46:04.905Z,15.50
2017-11-24T01:48:33.227Z,15.57
2017-11-24T01:51:00.775Z,15.90
2017-11-24T01:53:28.295Z,16.50
2017-11-24T01:55:56.603Z,16.20
2017-11-24T01:58:24.152Z,15.70
2017-11-24T02:00:51.667Z,16.27
2017-11-24T02:03:19.180Z,15.10
2017-11-24T02:05:46.748Z,16.13
2017-11-24T02:08:14.264Z,15.40
2017-11-24T02:10:42.539Z,15.33
2017-11-24T02:13:10.105Z,15.83
2017-11-24T02:15:38.408Z,15.60
2017-11-24T02:18:05.948Z,16.80
2017-11-24T02:20:33.511Z,14.80
2017-11-24T02:23:01.794Z,15.73
2017-11-24T02:25:30.079Z,15.97
2017-11-24T02:27:57.622Z,14.07
2017-11-24T02:30:25.900Z,15.07
2017-11-24T02:32:54.192Z,14.90
2017-11-24T02:35:21.745Z,15.37
2017-11-24T02:37:50.040Z,13.77
2017-11-24T02:40:17.586Z,16.40
2017-11-24T02:42:45.156Z,15.30
2017-11-24T02:45:12.672Z,15.37
2017-11-24T02:47:40.185Z,14.57
2017-11-24T02:50:07.760Z,15.37
2017-11-24T02:52:35.283Z,15.17
2017-11-24T02:55:02.793Z,14.40
2017-11-24T02:57:30.360Z,15.77
2017-11-24T02:59:57.895Z,15.87
2017-11-24T03:02:25.410Z,15.40
2017-11-24T03:04:53.730Z,14.57
2017-11-24T03:07:21.235Z,14.60
2017-11-24T03:09:49.552Z,15.20
2017-11-24T03:12:17.137Z,14.37
2017-11-24T03:14:44.657Z,13.73
2017-11-24T03:17:12.195Z,12.70
2017-11-24T03:19:40.520Z,13.80
2017-11-24T03:22:08.059Z,13.23
2017-11-24T03:24:35.576Z,14.23
2017-11-24T03:27:03.131Z,13.53
2017-11-24T03:29:30.651Z,14.43
2017-11-24T03:31:58.171Z,15.20
2017-11-24T03:34:26.476Z,13.13
2017-11-24T03:36:53.991Z,13.43
2017-11-24T03:39:22.271Z,12.53
2017-11-24T03:41:49.803Z,12.80
2017-11-24T03:44:17.319Z,14.53
2017-11-24T03:46:44.855Z,13.60
2017-11-24T03:49:12.799Z,14.40
2017-11-24T03:51:40.305Z,13.60
2017-11-24T03:54:07.831Z,14.23
2017-11-24T03:56:35.411Z,12.57
2017-11-24T03:59:03.693Z,14.37
2017-11-24T04:01:31.231Z,14.60
2017-11-24T04:03:58.791Z,13.13
2017-11-24T04:06:27.097Z,12.83
2017-11-24T04:08:54.634Z,12.70
2017-11-24T04:11:22.976Z,12.80
2017-11-24T04:13:50.592Z,12.87
2017-11-24T04:16:18.181Z,12.57
2017-11-24T04:18:45.728Z,13.50
2017-11-24T04:21:13.244Z,13.20
2017-11-24T04:23:41.529Z,14.15
2017-11-24T04:26:09.864Z,13.98
2017-11-24T04:28:37.399Z,13.90
2017-11-24T04:31:11.425Z,12.97
2017-11-24T04:33:40.499Z,13.67
2017-11-24T04:36:08.031Z,12.13
2017-11-24T04:38:36.391Z,14.38
2017-11-24T04:41:04.020Z,13.52
2017-11-24T04:43:31.534Z,13.40
2017-11-24T04:45:59.959Z,14.13
2017-11-24T04:48:27.483Z,13.40
2017-11-24T04:50:55.751Z,12.73
2017-11-24T04:53:24.072Z,13.13
2017-11-24T04:55:51.624Z,12.60
2017-11-24T04:58:19.143Z,11.93
2017-11-24T05:00:46.689Z,12.40
2017-11-24T05:03:14.191Z,13.10
2017-11-24T05:05:41.728Z,13.17
2017-11-24T05:08:09.687Z,13.40
2017-11-24T05:10:37.196Z,12.00
2017-11-24T05:13:04.760Z,12.90
2017-11-24T05:15:32.319Z,13.13
2017-11-24T05:17:59.844Z,11.37
2017-11-24T05:20:28.119Z,11.80
2017-11-24T05:22:56.456Z,12.63
2017-11-24T05:25:23.986Z,13.03
2017-11-24T05:27:51.506Z,12.37
2017-11-24T05:30:19.832Z,13.00
2017-11-24T05:32:47.389Z,11.47
2017-11-24T05:35:14.936Z,11.65
2017-11-24T05:37:42.920Z,11.63
2017-11-24T05:40:10.459Z,12.00
2017-11-24T05:42:37.998Z,12.00
2017-11-24T05:45:06.320Z,11.70
2017-11-24T05:47:33.860Z,11.50
2017-11-24T05:50:01.368Z,11.90
2017-11-24T05:52:28.942Z,11.63
2017-11-24T05:54:57.255Z,11.57
2017-11-24T05:57:24.792Z,11.83
2017-11-24T05:59:53.127Z,11.93
2017-11-24T06:02:20.663Z,12.80
2017-11-24T06:04:48.316Z,12.20
2017-11-24T06:07:15.908Z,12.20
2017-11-24T06:09:43.454Z,11.40
2017-11-24T06:12:10.988Z,11.47
2017-11-24T06:14:38.616Z,10.90
2017-11-24T06:17:06.243Z,11.70
2017-11-24T06:19:33.796Z,11.67
2017-11-24T06:22:01.369Z,12.00
2017-11-24T06:24:28.887Z,12.30
2017-11-24T06:26:56.456Z,11.63
2017-11-24T06:29:24.026Z,10.75
2017-11-24T06:31:51.668Z,11.67
2017-11-24T06:34:19.186Z,11.10
2017-11-24T06:36:46.758Z,12.50
2017-11-24T06:39:15.195Z,11.47
2017-11-24T06:41:42.696Z,10.80
2017-11-24T06:44:10.303Z,12.10
2017-11-24T06:46:37.839Z,11.10
2017-11-24T06:49:06.115Z,11.47
2017-11-24T06:51:34.580Z,11.20
2017-11-24T06:54:02.312Z,10.67
2017-11-24T06:56:29.819Z,10.80
2017-11-24T06:58:58.117Z,11.43
2017-11-24T07:01:25.651Z,11.98
2017-11-24T07:03:53.965Z,12.43
2017-11-24T07:06:21.502Z,12.80
2017-11-24T07:08:49.073Z,13.82
2017-11-24T07:11:16.592Z,12.93
2017-11-24T07:13:44.921Z,12.50
2017-11-24T07:16:12.472Z,13.13
2017-11-24T07:18:40.032Z,12.30
2017-11-24T07:21:07.618Z,13.10
2017-11-24T07:23:35.551Z,13.73
2017-11-24T07:26:03.099Z,13.57
2017-11-24T07:28:31.428Z,14.77
2017-11-24T07:30:58.948Z,13.07
2017-11-24T07:33:26.472Z,14.03
2017-11-24T07:35:54.048Z,11.80
2017-11-24T07:38:22.365Z,13.10
2017-11-24T07:40:49.871Z,12.90
2017-11-24T07:43:18.187Z,12.00
2017-11-24T07:45:45.719Z,12.37
2017-11-24T07:48:13.659Z,11.60
2017-11-24T07:50:41.256Z,12.60
2017-11-24T07:53:09.538Z,12.33
2017-11-24T07:55:37.047Z,11.57
2017-11-24T07:58:04.607Z,15.93
2017-11-24T08:00:32.133Z,19.23
2017-11-24T08:02:59.661Z,16.73
2017-11-24T08:05:27.999Z,12.20
2017-11-24T08:07:55.519Z,11.38
2017-11-24T08:10:23.019Z,12.43
2017-11-24T08:12:50.567Z,12.40
2017-11-24T08:15:18.075Z,11.70
2017-11-24T08:17:46.367Z,11.93
2017-11-24T08:20:13.952Z,12.10
2017-11-24T08:22:41.463Z,11.70
2017-11-24T08:25:09.747Z,11.85
2017-11-24T08:27:37.343Z,11.17
2017-11-24T08:30:04.855Z,11.73
2017-11-24T08:32:32.389Z,11.00
2017-11-24T08:34:59.959Z,12.25
2017-11-24T08:37:27.476Z,10.75
2017-11-24T08:39:54.986Z,12.65
2017-11-24T08:42:22.559Z,11.73
2017-11-24T08:44:50.103Z,11.17
2017-11-24T08:47:23.351Z,11.87
2017-11-24T08:49:50.892Z,11.67
2017-11-24T08:52:18.436Z,11.77
2017-11-24T08:54:46.772Z,11.93
2017-11-24T08:57:14.320Z,11.60
2017-11-24T08:59:41.859Z,10.60
2017-11-24T09:02:19.452Z,10.30
2017-11-24T09:04:47.975Z,11.13
2017-11-24T09:07:15.516Z,10.87
2017-11-24T09:09:43.039Z,10.70
2017-11-24T09:12:11.371Z,12.57
2017-11-24T09:14:38.885Z,16.17
2017-11-24T09:17:06.402Z,18.20
2017-11-24T09:19:35.451Z,13.40
2017-11-24T09:22:02.988Z,12.50
2017-11-24T09:24:31.650Z,12.23
2017-11-24T09:26:59.195Z,12.27
2017-11-24T09:29:26.710Z,14.17
2017-11-24T09:31:54.258Z,12.57
2017-11-24T09:34:22.559Z,12.10
2017-11-24T09:36:50.091Z,12.30
2017-11-24T09:39:18.367Z,11.63
2017-11-24T09:41:46.679Z,12.13
2017-11-24T09:44:14.245Z,10.77
2017-11-24T09:46:41.767Z,11.10
2017-11-24T09:49:10.104Z,10.03
2017-11-24T09:51:37.632Z,10.35
2017-11-24T09:54:05.164Z,10.90
2017-11-24T09:56:32.723Z,10.60
2017-11-24T09:59:01.003Z,10.80
2017-11-24T10:01:28.516Z,10.73
2017-11-24T10:03:56.116Z,11.05
2017-11-24T10:06:24.392Z,11.47
2017-11-24T10:08:52.696Z,10.13
2017-11-24T10:11:20.251Z,10.88
2017-11-24T10:13:47.759Z,10.77
2017-11-24T10:16:15.303Z,10.52
2017-11-24T10:18:42.880Z,10.30
2017-11-24T10:21:15.988Z,10.43
2017-11-24T10:23:44.304Z,10.35
2017-11-24T10:26:11.836Z,9.97
2017-11-24T10:28:40.141Z,9.70
2017-11-24T10:31:07.696Z,10.03
2017-11-24T10:33:35.231Z,10.73
2017-11-24T10:36:03.555Z,10.00
2017-11-24T10:38:31.123Z,10.17
2017-11-24T10:40:58.664Z,19.25
2017-11-24T10:43:26.186Z,15.13
2017-11-24T10:45:54.619Z,11.20
2017-11-24T10:48:22.134Z,11.07
2017-11-24T10:50:50.412Z,10.97
2017-11-24T10:53:18.824Z,12.33
2017-11-24T10:55:46.364Z,12.17
2017-11-24T10:58:14.352Z,11.75
2017-11-24T11:00:41.932Z,12.10
2017-11-24T11:03:09.473Z,11.30
2017-11-24T11:05:37.391Z,10.85
2017-11-24T11:08:04.931Z,10.77
2017-11-24T11:10:32.442Z,11.43
2017-11-24T11:12:59.963Z,10.80
2017-11-24T11:15:28.307Z,11.93
2017-11-24T11:17:55.820Z,11.40
2017-11-24T11:20:24.404Z,11.23
2017-11-24T11:22:52.730Z,10.90
2017-11-24T11:25:20.267Z,10.90
2017-11-24T11:27:47.775Z,11.63
2017-11-24T11:30:15.312Z,10.50
2017-11-24T11:32:42.853Z,10.97
2017-11-24T11:35:10.361Z,9.85
2017-11-24T11:37:37.935Z,10.83
2017-11-24T11:40:06.352Z,10.93
2017-11-24T11:42:33.891Z,11.00
2017-11-24T11:45:01.439Z,10.60
2017-11-24T11:47:28.955Z,11.63
2017-11-24T11:49:56.487Z,10.40
2017-11-24T11:52:24.049Z,10.27
2017-11-24T11:54:51.608Z,9.48
2017-11-24T11:57:19.175Z,9.93
2017-11-24T11:59:46.774Z,9.40
2017-11-24T12:02:22.272Z,10.25
2017-11-24T12:04:50.019Z,8.87
2017-11-24T12:07:17.601Z,9.33
2017-11-24T12:09:45.230Z,9.60
2017-11-24T12:12:13.540Z,9.67
2017-11-24T12:14:41.069Z,9.57
2017-11-24T12:17:09.343Z,8.90
2017-11-24T12:19:37.675Z,9.83
2017-11-24T12:22:05.185Z,10.17
2017-11-24T12:24:32.700Z,9.60
2017-11-24T12:27:00.271Z,9.87
2017-11-24T12:29:27.812Z,8.73
2017-11-24T12:31:55.321Z,9.23
2017-11-24T12:34:23.660Z,8.63
2017-11-24T12:36:51.171Z,8.57
2017-11-24T12:39:18.676Z,9.77
2017-11-24T12:41:46.248Z,9.53
2017-11-24T12:44:13.760Z,9.20
2017-11-24T12:46:41.305Z,9.50
2017-11-24T12:49:08.863Z,9.20
2017-11-24T12:51:36.411Z,9.60
2017-11-24T12:54:04.420Z,8.80
2017-11-24T12:56:31.993Z,9.97
2017-11-24T12:58:59.551Z,9.03
2017-11-24T13:01:27.113Z,10.23
2017-11-24T13:03:54.764Z,8.17
2017-11-24T13:06:22.276Z,8.30
2017-11-24T13:08:50.564Z,9.17
2017-11-24T13:11:18.098Z,9.35
2017-11-24T13:13:46.039Z,8.73
2017-11-24T13:16:13.559Z,9.63
2017-11-24T13:18:41.105Z,8.80
2017-11-24T13:21:09.424Z,8.55
2017-11-24T13:23:36.961Z,8.85
2017-11-24T13:26:04.557Z,9.33
2017-11-24T13:28:32.130Z,9.90
2017-11-24T13:30:59.676Z,8.88
2017-11-24T13:33:27.252Z,9.27
2017-11-24T13:35:55.559Z,8.57
2017-11-24T13:38:23.868Z,8.07
2017-11-24T13:40:51.423Z,8.70
2017-11-24T13:43:18.940Z,8.50
2017-11-24T13:45:46.464Z,8.50
2017-11-24T13:48:14.059Z,8.60
2017-11-24T13:50:41.630Z,8.50
2017-11-24T13:53:09.907Z,8.48
2017-11-24T13:55:38.243Z,9.15
2017-11-24T13:58:05.816Z,9.53
2017-11-24T14:00:33.344Z,7.90
2017-11-24T14:03:00.882Z,8.55
2017-11-24T14:05:28.391Z,9.23
2017-11-24T14:07:56.028Z,8.97
2017-11-24T14:10:23.598Z,8.40
2017-11-24T14:12:51.127Z,9.52
2017-11-24T14:15:18.804Z,8.63
2017-11-24T14:17:46.376Z,8.30
2017-11-24T14:20:13.929Z,8.63
2017-11-24T14:22:41.460Z,8.70
2017-11-24T14:25:09.152Z,8.60
2017-11-24T14:27:36.695Z,9.85
2017-11-24T14:30:04.267Z,9.00
2017-11-24T14:32:31.856Z,9.68
2017-11-24T14:34:59.400Z,9.17
2017-11-24T14:37:26.925Z,9.57
2017-11-24T14:39:55.215Z,7.90
2017-11-24T14:42:23.963Z,9.45
2017-11-24T14:44:52.348Z,9.13
2017-11-24T14:47:20.693Z,8.65
2017-11-24T14:49:48.233Z,8.50
2017-11-24T14:52:15.735Z,9.20
2017-11-24T14:54:43.289Z,8.97
2017-11-24T14:57:10.861Z,9.40
2017-11-24T14:59:38.396Z,8.57
2017-11-24T15:02:05.969Z,9.33
2017-11-24T15:04:33.480Z,8.60
2017-11-24T15:07:00.987Z,8.13
2017-11-24T15:09:28.561Z,8.77
2017-11-24T15:11:56.853Z,8.75
2017-11-24T15:14:25.136Z,9.70
2017-11-24T15:16:53.467Z,9.23
2017-11-24T15:19:20.996Z,8.77
2017-11-24T15:21:48.532Z,8.80
2017-11-24T15:24:16.100Z,9.80
2017-11-24T15:26:43.615Z,9.05
2017-11-24T15:29:11.545Z,8.57
2017-11-24T15:31:39.110Z,9.10
2017-11-24T15:34:06.634Z,8.63
2017-11-24T15:36:34.935Z,9.37
2017-11-24T15:39:02.522Z,8.80
2017-11-24T15:41:30.047Z,9.07
2017-11-24T15:43:57.584Z,10.47
2017-11-24T15:46:26.008Z,9.10
2017-11-24T15:48:53.580Z,9.60
2017-11-24T15:51:21.103Z,9.03
2017-11-24T15:53:48.687Z,9.37
2017-11-24T15:56:16.196Z,9.67
2017-11-24T15:58:44.496Z,9.90
2017-11-24T16:01:12.193Z,9.40
2017-11-24T16:03:39.745Z,9.20
2017-11-24T16:06:07.435Z,9.20
2017-11-24T16:08:35.063Z,8.80
2017-11-24T16:11:02.615Z,8.47
2017-11-24T16:13:30.168Z,8.80
2017-11-24T16:15:57.760Z,9.45
2017-11-24T16:18:25.295Z,9.82
2017-11-24T16:20:52.857Z,9.33
2017-11-24T16:23:20.416Z,9.10
2017-11-24T16:25:47.990Z,8.77
2017-11-24T16:28:15.573Z,8.50
2017-11-24T16:30:43.192Z,9.30
2017-11-24T16:33:10.747Z,8.95
2017-11-24T16:35:38.339Z,8.80
2017-11-24T16:38:05.911Z,10.05
2017-11-24T16:40:33.452Z,9.53
2017-11-24T16:43:00.969Z,9.32
2017-11-24T16:45:28.558Z,8.73
2017-11-24T16:47:56.129Z,9.50
2017-11-24T16:50:23.793Z,8.85
2017-11-24T16:52:51.388Z,9.77
2017-11-24T16:55:18.960Z,9.70
2017-11-24T16:57:46.484Z,9.17
2017-11-24T17:00:14.064Z,9.97
2017-11-24T17:02:41.584Z,10.40
2017-11-24T17:05:09.116Z,10.23
2017-11-24T17:07:37.076Z,9.33
2017-11-24T17:10:05.387Z,9.17
2017-11-24T17:12:32.984Z,9.25
2017-11-24T17:15:01.337Z,9.73
2017-11-24T17:17:28.872Z,10.07
2017-11-24T17:19:56.411Z,10.55
2017-11-24T17:22:24.963Z,10.73
2017-11-24T17:24:52.578Z,10.57
2017-11-24T17:27:20.095Z,10.13
2017-11-24T17:29:47.668Z,9.97
2017-11-24T17:32:15.985Z,10.50
2017-11-24T17:34:43.565Z,10.40
2017-11-24T17:37:11.123Z,10.35
2017-11-24T17:39:38.685Z,10.13
2017-11-24T17:42:06.220Z,9.75
2017-11-24T17:44:33.776Z,9.82
2017-11-24T17:47:01.293Z,9.67
2017-11-24T17:49:28.835Z,10.55
2017-11-24T17:51:56.410Z,10.47
2017-11-24T17:54:23.938Z,10.90
2017-11-24T17:56:51.484Z,10.05
2017-11-24T17:59:19.080Z,9.83
2017-11-24T18:01:46.624Z,10.32
2017-11-24T18:04:14.692Z,10.23
2017-11-24T18:06:42.267Z,10.93
2017-11-24T18:09:09.781Z,10.20
2017-11-24T18:11:37.310Z,10.10
2017-11-24T18:14:05.643Z,10.68
2017-11-24T18:16:33.204Z,11.30
2017-11-24T18:19:00.764Z,11.50
2017-11-24T18:21:28.323Z,9.67
2017-11-24T18:23:55.881Z,11.50
2017-11-24T18:26:23.408Z,10.55
2017-11-24T18:28:51.794Z,9.73
2017-11-24T18:31:20.192Z,9.93
2017-11-24T18:33:47.727Z,10.75
2017-11-24T18:36:15.343Z,11.68
2017-11-24T18:38:42.896Z,10.70
2017-11-24T18:41:10.436Z,11.30
2017-11-24T18:43:38.014Z,10.75
2017-11-24T18:46:05.540Z,10.47
2017-11-24T18:48:33.092Z,10.43
2017-11-24T18:51:01.423Z,10.20
2017-11-24T18:53:28.960Z,10.70
2017-11-24T18:55:56.472Z,10.52
2017-11-24T18:58:24.772Z,10.35
2017-11-24T19:00:52.355Z,10.73
2017-11-24T19:03:19.867Z,10.23
2017-11-24T19:05:47.436Z,10.47
2017-11-24T19:08:16.266Z,10.57
2017-11-24T19:10:43.772Z,11.00
2017-11-24T19:13:11.311Z,12.33
2017-11-24T19:15:39.516Z,11.43
2017-11-24T19:18:09.889Z,10.93
2017-11-24T19:20:38.261Z,10.45
2017-11-24T19:23:07.717Z,10.90
2017-11-24T19:25:35.259Z,11.40
2017-11-24T19:28:02.824Z,10.85
2017-11-24T19:30:30.343Z,11.90
2017-11-24T19:32:57.856Z,11.80
2017-11-24T19:35:26.239Z,12.85
2017-11-24T19:37:54.571Z,12.43
2017-11-24T19:40:22.104Z,11.70
2017-11-24T19:42:49.667Z,13.47
2017-11-24T19:45:17.225Z,13.27
2017-11-24T19:47:44.772Z,13.75
2017-11-24T19:50:12.451Z,14.27
2017-11-24T19:52:39.993Z,15.35
2017-11-24T19:55:07.534Z,17.25
2017-11-24T19:57:35.525Z,20.20
2017-11-24T20:00:03.113Z,21.53
2017-11-24T20:02:30.663Z,23.05
2017-11-24T20:04:58.240Z,23.53
2017-11-24T20:07:26.184Z,25.77
2017-11-24T20:09:54.499Z,25.48
2017-11-24T20:12:22.137Z,25.57
2017-11-24T20:14:52.465Z,26.67
2017-11-24T20:19:51.863Z,27.62
2017-11-24T20:22:19.654Z,26.75
2017-11-24T20:24:47.226Z,26.08
2017-11-24T20:27:14.812Z,27.37
2017-11-24T20:29:42.412Z,27.50
2017-11-24T20:32:10.012Z,26.85
2017-11-24T20:34:37.617Z,26.55
2017-11-24T20:37:05.981Z,25.47
2017-11-24T20:39:35.204Z,26.10
2017-11-24T20:42:03.557Z,24.20
2017-11-24T20:44:31.877Z,24.12
2017-11-24T20:46:59.424Z,24.60
2017-11-24T20:49:27.029Z,26.40
2017-11-24T20:51:55.286Z,25.07
2017-11-24T20:54:22.838Z,24.47
2017-11-24T20:56:50.430Z,22.90
2017-11-24T20:59:18.015Z,26.10
2017-11-24T21:01:46.349Z,23.57
2017-11-24T21:04:13.989Z,25.58
2017-11-24T21:06:41.577Z,24.10
2017-11-24T21:09:09.154Z,25.73
2017-11-24T21:11:36.757Z,23.47
2017-11-24T21:14:04.333Z,23.37
2017-11-24T21:16:31.945Z,22.20
2017-11-24T21:18:59.572Z,23.87
2017-11-24T21:21:27.128Z,22.97
2017-11-24T21:23:54.686Z,22.80
2017-11-24T21:26:22.289Z,24.50
2017-11-24T21:28:49.914Z,22.80
2017-11-24T21:31:17.473Z,23.17
2017-11-24T21:33:45.042Z,22.45
2017-11-24T21:36:12.613Z,23.12
2017-11-24T21:38:40.938Z,23.20
2017-11-24T21:41:08.512Z,23.40
2017-11-24T21:43:36.119Z,22.40
2017-11-24T21:46:03.711Z,21.83
2017-11-24T21:48:32.099Z,22.35
2017-11-24T21:50:59.623Z,22.27
2017-11-24T21:53:27.190Z,22.65
2017-11-24T21:55:54.767Z,23.12
2017-11-24T21:58:23.090Z,22.33
2017-11-24T22:00:50.670Z,21.17
2017-11-24T22:03:18.263Z,21.20
2017-11-24T22:05:46.585Z,20.70
2017-11-24T22:08:14.139Z,20.65
2017-11-24T22:10:41.738Z,20.97
2017-11-24T22:13:09.301Z,22.40
2017-11-24T22:15:36.845Z,20.80
2017-11-24T22:18:04.411Z,19.47
2017-11-24T22:20:31.952Z,20.00
2017-11-24T22:22:59.489Z,22.10
2017-11-24T22:25:27.055Z,21.03
2017-11-24T22:27:54.615Z,20.05
2017-11-24T22:30:22.191Z,21.33
2017-11-24T22:32:49.753Z,21.37
2017-11-24T22:35:17.276Z,21.55
2017-11-24T22:37:45.578Z,21.30
2017-11-24T22:40:13.148Z,20.50
2017-11-24T22:42:40.672Z,20.80
2017-11-24T22:45:08.978Z,21.30
2017-11-24T22:47:36.565Z,21.97
2017-11-24T22:50:04.108Z,21.00
2017-11-24T22:52:31.676Z,20.23
2017-11-24T22:54:59.241Z,20.75
2017-11-24T22:57:26.800Z,21.57
2017-11-24T22:59:54.335Z,20.70
2017-11-24T23:02:21.904Z,19.53
2017-11-24T23:04:49.457Z,19.80
2017-11-24T23:07:16.999Z,21.07
2017-11-24T23:09:44.554Z,20.63
2017-11-24T23:12:12.119Z,20.30
2017-11-24T23:14:39.656Z,21.02
2017-11-24T23:17:07.591Z,21.73
2017-11-24T23:19:35.134Z,20.50
2017-11-24T23:22:03.043Z,19.97
2017-11-24T23:24:31.257Z,20.30
2017-11-24T23:26:59.308Z,19.90
2017-11-24T23:29:28.200Z,20.98
2017-11-24T23:31:57.000Z,19.12
2017-11-24T23:34:24.520Z,19.05
2017-11-24T23:36:52.868Z,19.53
2017-11-24T23:39:20.408Z,20.20
2017-11-24T23:41:47.927Z,21.10
2017-11-24T23:44:15.437Z,19.43
2017-11-24T23:46:42.992Z,20.45
2017-11-24T23:49:10.503Z,19.10
2017-11-24T23:51:38.034Z,22.00
2017-11-24T23:54:05.591Z,20.00
2017-11-24T23:56:33.123Z,20.17
2017-11-24T23:59:00.643Z,20.50
